createdAt,value
2019-04-21T00:02:14.955Z,11.73
2019-04-21T00:04:56.881Z,11.71
2019-04-21T00:07:37.737Z,11.63
2019-04-21T00:10:12.157Z,11.45
2019-04-21T00:12:40.661Z,11.20
2019-04-21T00:15:06.355Z,11.24
2019-04-21T00:17:32.066Z,11.23
2019-04-21T00:20:16.522Z,11.21
2019-04-21T00:22:52.580Z,11.23
2019-04-21T00:25:27.852Z,11.16
2019-04-21T00:28:11.438Z,11.14
2019-04-21T00:30:44.215Z,11.13
2019-04-21T00:33:06.844Z,11.21
2019-04-21T00:35:39.543Z,11.14
2019-04-21T00:38:25.086Z,11.12
2019-04-21T00:41:00.386Z,11.16
2019-04-21T00:43:25.253Z,11.04
2019-04-21T00:45:51.815Z,10.93
2019-04-21T00:48:34.537Z,10.77
2019-04-21T00:53:58.330Z,10.79
2019-04-21T00:56:27.460Z,10.79
2019-04-21T00:58:59.830Z,10.71
2019-04-21T01:01:24.885Z,10.58
2019-04-21T01:04:02.254Z,10.60
2019-04-21T01:06:35.164Z,10.45
2019-04-21T01:09:03.676Z,10.42
2019-04-21T01:11:44.769Z,10.37
2019-04-21T01:14:15.043Z,10.41
2019-04-21T01:16:45.810Z,10.29
2019-04-21T01:19:16.751Z,10.35
2019-04-21T01:21:27.119Z,10.45
2019-04-21T01:24:07.733Z,10.40
2019-04-21T01:26:41.464Z,10.46
2019-04-21T01:29:20.929Z,10.34
2019-04-21T01:32:08.586Z,10.36
2019-04-21T01:34:33.036Z,10.28
2019-04-21T01:36:58.431Z,10.19
2019-04-21T01:39:42.721Z,10.25
2019-04-21T01:42:08.863Z,10.18
2019-04-21T01:44:49.903Z,10.18
2019-04-21T01:47:13.085Z,10.14
2019-04-21T01:49:41.686Z,10.11
2019-04-21T01:52:34.531Z,9.95
2019-04-21T01:55:12.807Z,9.89
2019-04-21T01:57:50.328Z,9.79
2019-04-21T02:00:13.402Z,9.76
2019-04-21T02:03:01.740Z,9.69
2019-04-21T02:05:37.559Z,9.70
2019-04-21T02:08:03.638Z,9.62
2019-04-21T02:10:49.026Z,9.64
2019-04-21T02:13:10.263Z,9.74
2019-04-21T02:15:54.507Z,9.72
2019-04-21T02:18:16.975Z,9.75
2019-04-21T02:20:39.877Z,9.78
2019-04-21T02:23:34.625Z,9.73
2019-04-21T02:26:02.089Z,9.76
2019-04-21T02:28:38.456Z,9.60
2019-04-21T02:31:14.207Z,9.63
2019-04-21T02:39:02.405Z,9.51
2019-04-21T02:41:12.864Z,9.46
2019-04-21T02:43:58.338Z,9.50
2019-04-21T02:46:38.544Z,9.50
2019-04-21T02:49:13.419Z,9.49
2019-04-21T02:51:38.713Z,9.49
2019-04-21T02:56:34.451Z,9.48
2019-04-21T03:02:19.027Z,9.25
2019-04-21T03:07:31.896Z,9.29
2019-04-21T03:09:51.176Z,9.36
2019-04-21T03:12:32.022Z,9.40
2019-04-21T03:15:15.969Z,9.36
2019-04-21T03:17:46.497Z,9.29
2019-04-21T03:20:08.746Z,9.18
2019-04-21T03:22:49.077Z,9.08
2019-04-21T03:25:31.167Z,9.04
2019-04-21T03:33:42.954Z,9.00
2019-04-21T03:38:12.958Z,8.80
2019-04-21T03:40:26.209Z,8.76
2019-04-21T03:43:04.601Z,8.80
2019-04-21T03:48:13.645Z,8.71
2019-04-21T03:50:39.619Z,8.82
2019-04-21T03:53:22.671Z,8.82
2019-04-21T03:58:41.916Z,8.78
2019-04-21T04:01:09.234Z,8.70
2019-04-21T04:16:50.166Z,8.91
2019-04-21T04:19:09.081Z,8.88
2019-04-21T04:24:19.646Z,8.94
2019-04-21T04:26:45.607Z,9.01
2019-04-21T04:29:19.849Z,9.08
2019-04-21T04:31:43.238Z,9.07
2019-04-21T04:34:27.383Z,8.98
2019-04-21T04:52:31.310Z,9.38
2019-04-21T04:54:54.495Z,9.44
2019-04-21T05:00:14.354Z,9.36
2019-04-21T05:05:23.857Z,9.49
2019-04-21T05:12:38.822Z,9.90
2019-04-21T05:15:12.757Z,9.93
2019-04-21T05:17:43.255Z,10.12
2019-04-21T05:20:24.963Z,10.29
2019-04-21T05:22:47.391Z,10.33
2019-04-21T05:25:16.991Z,10.41
2019-04-21T05:27:43.450Z,10.52
2019-04-21T05:30:33.857Z,10.59
2019-04-21T05:33:05.382Z,10.75
2019-04-21T05:35:50.318Z,10.91
2019-04-21T05:38:33.329Z,10.95
2019-04-21T05:40:55.235Z,11.11
2019-04-21T05:43:39.054Z,10.99
2019-04-21T05:46:13.972Z,11.28
2019-04-21T05:48:54.298Z,11.44
2019-04-21T05:51:28.732Z,11.36
2019-04-21T05:54:10.987Z,12.16
2019-04-21T05:56:37.995Z,12.74
2019-04-21T05:59:07.759Z,13.38
2019-04-21T06:01:47.040Z,13.85
2019-04-21T06:04:34.693Z,13.64
2019-04-21T06:06:47.659Z,13.62
2019-04-21T06:09:21.314Z,13.31
2019-04-21T06:11:50.797Z,13.34
2019-04-21T06:14:20.308Z,13.88
2019-04-21T06:16:55.676Z,16.15
2019-04-21T06:19:39.345Z,18.64
2019-04-21T06:21:58.965Z,19.33
2019-04-21T06:24:39.210Z,19.91
2019-04-21T06:29:38.338Z,22.32
2019-04-21T06:35:00.254Z,22.26
2019-04-21T06:40:08.980Z,23.73
2019-04-21T06:42:23.933Z,23.96
2019-04-21T06:45:00.996Z,24.92
2019-04-21T06:47:37.980Z,23.66
2019-04-21T06:50:01.659Z,22.48
2019-04-21T06:52:46.664Z,22.48
2019-04-21T06:55:12.083Z,22.04
2019-04-21T06:57:38.932Z,21.32
2019-04-21T07:00:14.971Z,21.97
2019-04-21T07:03:11.050Z,22.38
2019-04-21T07:05:22.791Z,23.65
2019-04-21T07:08:11.295Z,24.92
2019-04-21T07:10:26.529Z,24.36
2019-04-21T07:12:51.608Z,25.05
2019-04-21T07:15:34.113Z,25.73
2019-04-21T07:18:09.024Z,25.38
2019-04-21T07:20:30.968Z,25.53
2019-04-21T07:23:09.407Z,25.53
2019-04-21T07:25:43.463Z,24.88
2019-04-21T07:28:09.979Z,25.30
2019-04-21T07:30:49.600Z,25.35
2019-04-21T07:33:41.187Z,25.64
2019-04-21T07:35:44.490Z,24.82
2019-04-21T07:38:24.474Z,24.89
2019-04-21T07:40:47.862Z,25.37
2019-04-21T07:43:20.454Z,25.52
2019-04-21T07:45:52.456Z,24.87
2019-04-21T07:48:36.126Z,23.86
2019-04-21T07:51:22.894Z,24.06
2019-04-21T07:53:55.336Z,24.87
2019-04-21T07:56:09.478Z,24.80
2019-04-21T07:58:59.115Z,24.31
2019-04-21T08:04:03.816Z,24.44
2019-04-21T08:06:38.739Z,24.56
2019-04-21T08:09:06.224Z,24.63
2019-04-21T08:11:32.756Z,24.00
2019-04-21T08:14:14.714Z,23.55
2019-04-21T08:16:49.824Z,23.78
2019-04-21T08:19:13.075Z,24.59
2019-04-21T08:21:49.648Z,24.14
2019-04-21T08:24:19.778Z,24.43
2019-04-21T08:26:55.816Z,24.69
2019-04-21T08:29:39.415Z,25.13
2019-04-21T08:32:06.840Z,25.67
2019-04-21T08:34:30.056Z,25.24
2019-04-21T08:36:56.737Z,25.26
2019-04-21T08:39:42.065Z,25.77
2019-04-21T08:42:06.552Z,25.22
2019-04-21T08:44:43.086Z,25.24
2019-04-21T08:47:16.779Z,25.15
2019-04-21T08:49:41.411Z,24.86
2019-04-21T08:52:34.723Z,24.71
2019-04-21T08:54:55.812Z,25.15
2019-04-21T08:57:52.606Z,25.29
2019-04-21T09:00:19.814Z,25.47
2019-04-21T09:03:02.363Z,25.74
2019-04-21T09:05:29.700Z,25.87
2019-04-21T09:08:06.663Z,25.80
2019-04-21T09:10:35.581Z,24.88
2019-04-21T09:13:04.971Z,25.42
2019-04-21T09:15:39.127Z,25.85
2019-04-21T09:18:08.451Z,26.20
2019-04-21T09:20:47.352Z,25.70
2019-04-21T09:23:13.309Z,25.26
2019-04-21T09:25:53.024Z,25.26
2019-04-21T09:28:22.665Z,25.70
2019-04-21T09:30:43.397Z,25.89
2019-04-21T09:33:09.267Z,26.27
2019-04-21T09:35:47.471Z,26.22
2019-04-21T09:38:22.718Z,25.72
2019-04-21T09:40:49.026Z,26.18
2019-04-21T09:43:25.651Z,26.08
2019-04-21T09:45:49.653Z,26.08
2019-04-21T09:48:22.528Z,25.88
2019-04-21T09:50:52.802Z,26.17
2019-04-21T09:53:31.222Z,26.30
2019-04-21T09:55:59.750Z,25.31
2019-04-21T09:58:35.820Z,25.30
2019-04-21T10:01:13.567Z,25.66
2019-04-21T10:03:42.822Z,24.91
2019-04-21T10:06:06.682Z,24.92
2019-04-21T10:08:38.536Z,24.94
2019-04-21T10:11:09.838Z,24.00
2019-04-21T10:13:40.494Z,24.80
2019-04-21T10:16:13.220Z,25.27
2019-04-21T10:18:44.119Z,24.64
2019-04-21T10:21:15.470Z,24.81
2019-04-21T10:23:47.962Z,25.12
2019-04-21T10:26:24.341Z,24.02
2019-04-21T10:28:58.704Z,23.46
2019-04-21T10:31:27.364Z,23.01
2019-04-21T10:33:58.938Z,23.42
2019-04-21T10:36:30.954Z,23.24
2019-04-21T10:39:04.050Z,23.17
2019-04-21T10:41:35.346Z,22.49
2019-04-21T10:44:07.205Z,21.78
2019-04-21T10:46:38.172Z,21.66
2019-04-21T10:49:08.803Z,21.54
2019-04-21T10:51:39.488Z,21.70
2019-04-21T10:54:11.436Z,21.96
2019-04-21T10:56:44.412Z,22.43
2019-04-21T10:59:14.731Z,22.53
2019-04-21T11:01:45.352Z,22.17
2019-04-21T11:04:24.517Z,22.30
2019-04-21T11:06:50.747Z,22.00
2019-04-21T11:09:22.037Z,21.82
2019-04-21T11:11:53.556Z,21.82
2019-04-21T11:14:27.189Z,21.28
2019-04-21T11:16:58.673Z,21.25
2019-04-21T11:19:30.680Z,21.16
2019-04-21T11:22:02.878Z,21.71
2019-04-21T11:24:33.755Z,21.76
2019-04-21T11:27:04.681Z,21.25
2019-04-21T11:29:35.296Z,21.01
2019-04-21T11:32:07.103Z,20.70
2019-04-21T11:34:38.936Z,20.52
2019-04-21T11:37:10.768Z,20.58
2019-04-21T11:39:50.157Z,20.74
2019-04-21T11:42:19.511Z,21.21
2019-04-21T11:44:51.495Z,21.71
2019-04-21T11:47:28.037Z,21.44
2019-04-21T11:49:59.067Z,21.69
2019-04-21T11:52:29.710Z,21.30
2019-04-21T11:55:00.574Z,21.31
2019-04-21T11:57:36.694Z,20.95
2019-04-21T12:00:06.054Z,21.37
2019-04-21T12:02:37.388Z,21.63
2019-04-21T12:05:09.790Z,21.56
2019-04-21T12:07:40.933Z,21.91
2019-04-21T12:10:13.441Z,21.88
2019-04-21T12:12:45.420Z,21.45
2019-04-21T12:15:16.737Z,21.93
2019-04-21T12:17:48.084Z,21.99
2019-04-21T12:20:18.970Z,22.07
2019-04-21T12:22:49.564Z,21.87
2019-04-21T12:25:22.937Z,21.97
2019-04-21T12:27:54.122Z,21.78
2019-04-21T12:30:25.037Z,21.41
2019-04-21T12:33:00.148Z,21.47
2019-04-21T12:35:30.768Z,21.82
2019-04-21T12:38:02.652Z,22.10
2019-04-21T12:40:34.710Z,22.05
2019-04-21T12:43:06.424Z,22.05
2019-04-21T12:45:37.854Z,22.11
2019-04-21T12:48:10.328Z,21.98
2019-04-21T12:50:41.670Z,21.61
2019-04-21T12:53:14.171Z,22.11
2019-04-21T12:55:46.326Z,22.05
2019-04-21T12:58:17.344Z,22.17
2019-04-21T13:00:49.493Z,22.28
2019-04-21T13:03:23.049Z,22.30
2019-04-21T13:05:53.771Z,22.67
2019-04-21T13:08:25.034Z,22.63
2019-04-21T13:10:56.147Z,22.64
2019-04-21T13:13:28.054Z,22.64
2019-04-21T13:15:58.827Z,22.48
2019-04-21T13:18:29.452Z,22.63
2019-04-21T13:21:02.162Z,22.70
2019-04-21T13:23:32.330Z,22.23
2019-04-21T13:26:06.526Z,22.01
2019-04-21T13:28:37.730Z,21.75
2019-04-21T13:31:09.352Z,22.01
2019-04-21T13:33:39.973Z,22.17
2019-04-21T13:36:11.771Z,22.22
2019-04-21T13:39:13.691Z,21.78
2019-04-21T13:41:32.693Z,21.94
2019-04-21T13:43:53.020Z,22.14
2019-04-21T13:46:24.949Z,21.31
2019-04-21T13:48:56.705Z,21.68
2019-04-21T13:51:27.274Z,21.94
2019-04-21T13:53:57.869Z,21.96
2019-04-21T13:56:28.923Z,22.20
2019-04-21T13:59:02.329Z,22.38
2019-04-21T14:01:33.964Z,22.32
2019-04-21T14:04:07.313Z,22.47
2019-04-21T14:06:38.472Z,22.41
2019-04-21T14:09:11.499Z,22.37
2019-04-21T14:11:43.498Z,21.95
2019-04-21T14:14:14.476Z,21.94
2019-04-21T14:16:45.763Z,22.08
2019-04-21T14:19:17.270Z,22.24
2019-04-21T14:21:49.870Z,21.73
2019-04-21T14:24:20.201Z,21.60
2019-04-21T14:26:52.055Z,21.97
2019-04-21T14:29:23.858Z,22.25
2019-04-21T14:31:55.903Z,22.31
2019-04-21T14:34:28.122Z,22.29
2019-04-21T14:36:59.022Z,22.29
2019-04-21T14:39:30.374Z,22.14
2019-04-21T14:42:02.282Z,21.84
2019-04-21T14:44:33.267Z,21.34
2019-04-21T14:47:09.254Z,21.59
2019-04-21T14:49:47.311Z,21.58
2019-04-21T14:52:21.111Z,21.20
2019-04-21T14:54:56.338Z,21.00
2019-04-21T14:57:27.399Z,20.99
2019-04-21T14:59:57.970Z,21.01
2019-04-21T15:02:29.911Z,21.02
2019-04-21T15:05:02.117Z,21.11
2019-04-21T15:07:33.095Z,21.14
2019-04-21T15:10:14.279Z,21.01
2019-04-21T15:12:39.342Z,20.98
2019-04-21T15:15:11.770Z,20.78
2019-04-21T15:17:44.028Z,20.81
2019-04-21T15:20:16.318Z,20.77
2019-04-21T15:22:48.306Z,20.80
2019-04-21T15:25:20.415Z,20.90
2019-04-21T15:27:52.813Z,20.99
2019-04-21T15:30:24.767Z,20.60
2019-04-21T15:32:55.382Z,20.51
2019-04-21T15:35:26.933Z,20.68
2019-04-21T15:37:58.066Z,20.60
2019-04-21T15:40:39.887Z,20.32
2019-04-21T15:43:02.269Z,20.28
2019-04-21T15:45:33.157Z,20.21
2019-04-21T15:48:04.342Z,20.05
2019-04-21T15:50:35.682Z,19.93
2019-04-21T15:53:08.008Z,19.97
2019-04-21T15:55:57.033Z,19.98
2019-04-21T15:58:30.456Z,19.99
2019-04-21T16:01:06.930Z,20.06
2019-04-21T16:03:38.562Z,20.17
2019-04-21T16:06:09.673Z,20.22
2019-04-21T16:08:40.372Z,20.05
2019-04-21T16:11:11.449Z,19.82
2019-04-21T16:13:43.522Z,19.84
2019-04-21T16:16:14.705Z,19.79
2019-04-21T16:18:46.009Z,19.74
2019-04-21T16:21:18.038Z,19.84
2019-04-21T16:23:48.766Z,19.88
2019-04-21T16:26:20.357Z,19.87
2019-04-21T16:28:51.221Z,19.84
2019-04-21T16:31:22.554Z,19.67
2019-04-21T16:33:54.629Z,19.67
2019-04-21T16:36:25.661Z,19.72
2019-04-21T16:38:57.503Z,19.70
2019-04-21T16:41:29.309Z,19.67
2019-04-21T16:44:00.921Z,19.62
2019-04-21T16:46:31.699Z,19.53
2019-04-21T16:49:02.343Z,19.54
2019-04-21T16:51:33.907Z,19.44
2019-04-21T16:54:06.228Z,19.36
2019-04-21T16:56:39.605Z,19.25
2019-04-21T17:01:54.522Z,19.21
2019-04-21T17:04:26.463Z,19.22
2019-04-21T17:06:58.791Z,19.14
2019-04-21T17:09:30.640Z,19.08
2019-04-21T17:12:05.575Z,19.03
2019-04-21T17:14:51.297Z,18.93
2019-04-21T17:17:35.237Z,18.91
2019-04-21T17:19:45.512Z,18.87
2019-04-21T17:22:13.753Z,18.83
2019-04-21T17:24:46.479Z,18.75
2019-04-21T17:27:17.447Z,18.69
2019-04-21T17:29:50.654Z,18.65
2019-04-21T17:32:27.292Z,18.55
2019-04-21T17:34:56.147Z,18.49
2019-04-21T17:37:28.402Z,18.42
2019-04-21T17:40:01.884Z,18.33
2019-04-21T17:42:39.793Z,18.27
2019-04-21T17:45:05.824Z,18.15
2019-04-21T17:47:45.823Z,18.04
2019-04-21T17:50:23.416Z,17.90
2019-04-21T17:53:04.964Z,17.74
2019-04-21T17:55:36.927Z,17.59
2019-04-21T17:58:21.732Z,17.48
2019-04-21T18:01:10.758Z,17.41
2019-04-21T18:03:56.919Z,17.38
2019-04-21T18:06:01.498Z,17.35
2019-04-21T18:08:36.752Z,17.27
2019-04-21T18:11:01.179Z,17.14
2019-04-21T18:13:25.009Z,16.99
2019-04-21T18:16:08.143Z,16.93
2019-04-21T18:18:26.867Z,16.85
2019-04-21T18:21:08.946Z,16.73
2019-04-21T18:24:00.757Z,16.67
2019-04-21T18:26:35.947Z,16.65
2019-04-21T18:28:59.115Z,16.50
2019-04-21T18:31:36.451Z,16.22
2019-04-21T18:34:12.517Z,16.11
2019-04-21T18:36:47.801Z,16.20
2019-04-21T18:39:38.178Z,16.19
2019-04-21T18:42:19.914Z,16.25
2019-04-21T18:45:11.053Z,16.23
2019-04-21T18:47:31.800Z,16.19
2019-04-21T18:49:56.204Z,16.20
2019-04-21T18:52:45.205Z,16.13
2019-04-21T18:55:16.248Z,16.03
2019-04-21T18:57:44.008Z,15.85
2019-04-21T19:00:17.853Z,15.86
2019-04-21T19:02:47.710Z,15.80
2019-04-21T19:05:19.148Z,15.79
2019-04-21T19:08:05.708Z,15.59
2019-04-21T19:10:39.708Z,15.50
2019-04-21T19:15:40.039Z,15.31
2019-04-21T19:18:43.663Z,15.23
2019-04-21T19:20:51.812Z,15.13
2019-04-21T19:23:33.851Z,15.02
2019-04-21T19:25:55.602Z,14.93
2019-04-21T19:28:24.608Z,14.76
2019-04-21T19:33:29.745Z,14.61
2019-04-21T19:35:49.791Z,14.65
2019-04-21T19:38:30.655Z,14.63
2019-04-21T19:41:14.426Z,14.53
2019-04-21T19:43:47.104Z,14.50
2019-04-21T19:46:13.995Z,14.47
2019-04-21T19:48:56.643Z,14.46
2019-04-21T19:51:20.899Z,14.43
2019-04-21T19:53:49.063Z,14.39
2019-04-21T19:56:08.442Z,14.32
2019-04-21T19:58:43.550Z,14.20
2019-04-21T20:01:11.949Z,14.11
2019-04-21T20:03:49.871Z,14.06
2019-04-21T20:06:34.527Z,13.87
2019-04-21T20:09:09.604Z,13.81
2019-04-21T20:11:38.766Z,13.86
2019-04-21T20:14:37.668Z,13.80
2019-04-21T20:16:44.136Z,13.80
2019-04-21T20:19:02.358Z,13.76
2019-04-21T20:21:31.029Z,13.64
2019-04-21T20:24:09.129Z,13.57
2019-04-21T20:26:41.249Z,13.60
2019-04-21T20:29:20.086Z,13.54
2019-04-21T20:31:54.359Z,13.47
2019-04-21T20:34:34.984Z,13.27
2019-04-21T20:37:07.706Z,13.22
2019-04-21T20:39:25.411Z,13.23
2019-04-21T20:42:11.354Z,13.18
2019-04-21T20:44:40.230Z,13.16
2019-04-21T20:47:13.143Z,13.19
2019-04-21T20:49:38.558Z,13.19
2019-04-21T20:52:23.985Z,13.13
2019-04-21T20:54:49.358Z,13.22
2019-04-21T20:57:21.920Z,13.21
2019-04-21T21:00:02.358Z,13.30
2019-04-21T21:02:30.032Z,13.68
2019-04-21T21:04:54.757Z,13.69
2019-04-21T21:07:45.901Z,13.88
2019-04-21T21:10:12.552Z,13.98
2019-04-21T21:12:50.848Z,14.08
2019-04-21T21:15:07.897Z,14.03
2019-04-21T21:17:52.366Z,14.04
2019-04-21T21:20:29.504Z,13.94
2019-04-21T21:22:52.056Z,13.92
2019-04-21T21:25:33.760Z,13.90
2019-04-21T21:27:53.113Z,13.86
2019-04-21T21:30:29.028Z,13.85
2019-04-21T21:33:00.829Z,13.90
2019-04-21T21:35:31.035Z,13.96
2019-04-21T21:38:08.134Z,13.92
2019-04-21T21:40:36.027Z,13.94
2019-04-21T21:42:55.285Z,13.85
2019-04-21T21:45:30.376Z,13.80
2019-04-21T21:48:12.640Z,13.76
2019-04-21T21:50:43.138Z,13.60
2019-04-21T21:53:10.510Z,13.37
2019-04-21T21:55:35.862Z,13.33
2019-04-21T21:58:08.517Z,13.32
2019-04-21T22:00:43.357Z,13.41
2019-04-21T22:03:23.219Z,13.45
2019-04-21T22:05:53.435Z,13.40
2019-04-21T22:08:18.905Z,13.25
2019-04-21T22:10:49.610Z,13.25
2019-04-21T22:13:22.175Z,13.27
2019-04-21T22:15:59.457Z,13.21
2019-04-21T22:18:42.091Z,13.06
2019-04-21T22:21:11.415Z,12.99
2019-04-21T22:23:42.670Z,12.97
2019-04-21T22:26:03.067Z,12.95
2019-04-21T22:28:33.899Z,12.85
2019-04-21T22:31:05.566Z,12.64
2019-04-21T22:33:47.859Z,12.46
2019-04-21T22:36:26.697Z,12.43
2019-04-21T22:39:04.941Z,12.46
2019-04-21T22:41:28.078Z,12.34
2019-04-21T22:43:52.268Z,12.32
2019-04-21T22:46:22.325Z,12.14
2019-04-21T22:48:57.046Z,12.07
2019-04-21T22:51:32.399Z,12.08
2019-04-21T22:53:59.582Z,11.96
2019-04-21T22:56:33.539Z,11.95
2019-04-21T22:59:08.517Z,11.92
2019-04-21T23:01:41.379Z,11.88
2019-04-21T23:04:08.954Z,11.70
2019-04-21T23:06:41.284Z,11.75
2019-04-21T23:09:12.980Z,11.81
2019-04-21T23:11:50.295Z,11.78
2019-04-21T23:14:17.544Z,11.69
2019-04-21T23:16:53.952Z,11.78
2019-04-21T23:19:35.698Z,11.74
2019-04-21T23:22:09.530Z,11.70
2019-04-21T23:24:45.511Z,11.92
2019-04-21T23:27:11.743Z,11.85
2019-04-21T23:32:16.894Z,11.83
2019-04-21T23:34:37.218Z,11.93
2019-04-21T23:37:14.164Z,11.97
2019-04-21T23:39:39.713Z,11.80
2019-04-21T23:42:11.212Z,11.84
2019-04-21T23:44:48.999Z,11.87
2019-04-21T23:47:31.699Z,11.90
2019-04-21T23:49:56.608Z,11.93
2019-04-21T23:52:19.847Z,11.72
2019-04-21T23:54:51.676Z,11.60
2019-04-21T23:57:30.453Z,11.57
2019-04-21T23:59:57.139Z,11.57
